Nearby METAR Reports

 

KSJC - San Jose, California, USA
Distance from station: NE 14km
Updated: 18/04/2024 01:53
Clear
Clear
 Wind from calm
Wind: Calm
Temperature: 16°C
Dew Point: 11°C
Humidity: 72%
Barometer: 1014.2 hPa
Clouds: Clear
Visibility: 16 km
2024/04/18 08:53 KSJC 180853Z AUTO 00000KT 10SM CLR 16/11 A2995 RMK AO2 SLP143 T01560111 56004 $
KNUQ - Moffett Nas/Mtn, California, USA
Distance from station: N 14km
Updated: 18/04/2024 02:35
Clear
Clear
 Wind from W
Wind: W 6 km/h
Temperature: 14°C
Dew Point: 11°C
Humidity: 82%
Barometer: 1014.2 hPa
Clouds: Clear
Visibility: 13 km
2024/04/18 09:35 KNUQ 180935Z AUTO 28003KT 8SM CLR 14/11 A2995 RMK AO2
 
KPAO - Palo Alto, California, USA
Distance from station: NNW 23km
Updated: 17/04/2024 20:47
NOT Current
Clear
Clear
 Wind from N
Wind: N 13 km/h
Temperature: 16°C
Dew Point: 12°C
Humidity: 77%
Barometer: 1014.6 hPa
Clouds: Clear
Visibility: 16 km
2024/04/18 03:47 KPAO 180347Z 35007KT 10SM SKC 16/12 A2996 RMK LAST
KRHV - San Jose/Reid, California, USA
Distance from station: ENE 19km
Updated: 17/04/2024 21:55
NOT Current
Clear
Clear
 Wind from calm
Wind: Calm
Temperature: 18°C
Dew Point: 12°C
Humidity: 68%
Barometer: 1015.2 hPa
Clouds: Clear
Visibility: 16 km
2024/04/18 04:55 KRHV 180455Z 00000KT 10SM SKC 18/12 A2998 RMK LAST
 
KOAK - Oakland, California, USA
Distance from station: NNW 50km
Updated: 18/04/2024 01:53
Clear
Clear
 Wind from WNW
Wind: WNW 13 km/h
Temperature: 12°C
Dew Point: 11°C
Humidity: 94%
Barometer: 1015.2 hPa
Clouds: Clear
Visibility: 16 km
2024/04/18 08:53 KOAK 180853Z 30007KT 10SM CLR 12/11 A2998 RMK AO2 SLP149 T01220111 56005
KSQL - San Carlos Airpo, California, USA
Distance from station: NW 34km
Updated: 18/04/2024 02:35
Clear
Clear
 Wind from calm
Wind: Calm
Temperature: 13°C
Dew Point: 9°C
Humidity: 77%
Barometer: 1014.6 hPa
Clouds: Clear
Visibility: 13 km
2024/04/18 09:35 KSQL 180935Z AUTO 00000KT 8SM CLR 13/09 A2996 RMK AO2
 
KSFO - San Francisco, California, USA
Distance from station: NW 49km
Updated: 18/04/2024 01:56
Clear
Clear
 Wind from WNW
Wind: WNW 19 km/h
Temperature: 12°C
Dew Point: 9°C
Humidity: 82%
Barometer: 1014.6 hPa
Clouds: Clear
Visibility: 16 km
2024/04/18 08:56 KSFO 180856Z 30010KT 10SM CLR 12/09 A2996 RMK AO2 SLP144 T01170089 56004
KE16 - San Martin, California, USA
Distance from station: ESE 43km
Updated: 18/04/2024 02:35
Few Clouds
Few Clouds
 Wind from NNE
Wind: NNE 6 km/h
Temperature: 12°C
Dew Point: 11°C
Humidity: 94%
Barometer: 1014.9 hPa
Clouds: Few Clouds
Visibility: 13 km
Cloud details: Few Clouds 549 m
Few Clouds 1006 m
2024/04/18 09:35 KE16 180935Z AUTO 03003KT 8SM FEW018 FEW033 12/11 A2997 RMK AO2 PWINO PNO
 
KWVI - Watsonville, California, USA
Distance from station: SSE 44km
Updated: 18/04/2024 01:53
Clear
Clear
 Wind from calm
Wind: Calm
Temperature: 11°C
Dew Point: 10°C
Humidity: 94%
Barometer: 1014.6 hPa
Clouds: Clear
Visibility: 16 km
2024/04/18 08:53 KWVI 180853Z AUTO 00000KT 10SM CLR 11/10 A2996 RMK AO2 SLP145 T01060100 56005
KHAF - Half Moon Bay, California, USA
Distance from station: WNW 50km
Updated: 18/04/2024 02:35
Mist, Clear
Mist, Clear
 Wind from calm
Wind: Calm
Temperature: 7°C
Dew Point: 7°C
Humidity: 100%
Barometer: 1015.2 hPa
Summary: Mist
Clouds: Clear
Visibility: 8 km
2024/04/18 09:35 KHAF 180935Z AUTO 00000KT 5SM BR CLR 07/07 A2998 RMK AO2
 
KHWD - Hayward, California, USA
Distance from station: N 44km
Updated: 18/04/2024 01:54
Clear
Clear
 Wind from NW
Wind: NW 6 km/h
Temperature: 14°C
Dew Point: 10°C
Humidity: 77%
Barometer: 1014.2 hPa
Clouds: Clear
Visibility: 16 km
2024/04/18 08:54 KHWD 180854Z AUTO 32003KT 10SM CLR 14/10 A2995 RMK AO2 SLP152 T01390100 56005
KLVK - Livermore, California, USA
Distance from station: NNE 51km
Updated: 18/04/2024 01:53
Clear
Clear
 Wind from calm
Wind: Calm
Temperature: 13°C
Dew Point: 11°C
Humidity: 88%
Barometer: 1014.2 hPa
Clouds: Clear
Visibility: 16 km
2024/04/18 08:53 KLVK 180853Z AUTO 00000KT 10SM CLR 13/11 A2995 RMK AO2 SLP139 T01330111 58004